Time;durP1;ratioP1;P1;durP2;ratioP2;P2;SDS_P1;SDS_P2;PMS_P1;PMS_P2;Temp;Humidity;BMP_temperature;BMP_pressure;BME280_temperature;BME280_humidity;BME280_pressure;Samples;Min_cycle;Max_cycle;Signal;HPM_P1;HPM_P2
2022/07/31 00:01:29;;;;;;;8.27;6.72;;;;;;;19.59;67.94;101650.53;4995800;28;20080;-77
2022/07/31 00:03:54;;;;;;;12.48;6.57;;;;;;;19.58;68.03;101648.03;5006978;28;20029;-77
2022/07/31 00:06:20;;;;;;;9.90;7.00;;;;;;;19.58;68.46;101648.03;5000441;28;20022;-77
2022/07/31 00:08:48;;;;;;;12.50;7.25;;;;;;;19.58;68.03;101648.03;5001580;28;20508;-77
2022/07/31 00:11:13;;;;;;;9.07;6.80;;;;;;;19.55;68.30;101646.50;5006969;28;20427;-77
2022/07/31 00:13:38;;;;;;;14.10;7.38;;;;;;;19.55;68.14;101640.31;4996085;28;20023;-77
2022/07/31 00:16:04;;;;;;;10.50;6.90;;;;;;;19.52;68.58;101637.94;5009288;28;20041;-77
2022/07/31 00:18:29;;;;;;;10.13;6.90;;;;;;;19.53;68.58;101640.47;5001189;28;20057;-75
2022/07/31 00:20:54;;;;;;;12.05;7.68;;;;;;;19.55;68.88;101643.00;5000128;28;20034;-76
2022/07/31 00:23:20;;;;;;;10.95;8.00;;;;;;;19.48;68.94;101637.41;5007486;28;20026;-75
2022/07/31 00:25:45;;;;;;;12.00;7.65;;;;;;;19.53;68.42;101637.81;4993455;28;20541;-75
2022/07/31 00:28:10;;;;;;;11.95;7.65;;;;;;;19.53;69.19;101642.31;5009229;28;20057;-75
2022/07/31 00:30:36;;;;;;;16.70;7.85;;;;;;;19.48;68.92;101642.72;5001889;28;20023;-75
2022/07/31 00:33:01;;;;;;;15.25;8.48;;;;;;;19.47;68.81;101633.06;4994154;28;20559;-75
2022/07/31 00:35:26;;;;;;;10.93;8.20;;;;;;;19.46;69.41;101646.53;5004644;28;20092;-76
2022/07/31 00:37:52;;;;;;;11.85;8.40;;;;;;;19.45;69.67;101645.72;5008349;28;20115;-76
2022/07/31 00:40:17;;;;;;;10.23;7.80;;;;;;;19.46;69.85;101642.03;4999495;28;20018;-76
2022/07/31 00:42:43;;;;;;;11.32;8.40;;;;;;;19.39;69.66;101649.81;4995645;28;20030;-76
2022/07/31 00:45:09;;;;;;;13.75;7.82;;;;;;;19.46;69.24;101646.53;5004452;28;20030;-75
2022/07/31 00:47:35;;;;;;;11.18;8.38;;;;;;;19.39;69.36;101638.31;5008900;28;20044;-76
2022/07/31 00:50:00;;;;;;;14.38;8.30;;;;;;;19.34;69.69;101641.44;4996867;28;20026;-75
2022/07/31 00:52:26;;;;;;;10.50;8.23;;;;;;;19.31;69.95;101639.06;4995455;28;20480;-75
2022/07/31 00:54:51;;;;;;;13.48;8.77;;;;;;;19.26;69.63;101638.69;5003694;28;20026;-76
2022/07/31 00:57:16;;;;;;;13.45;9.07;;;;;;;19.22;70.44;101634.66;5010076;28;20072;-76
2022/07/31 00:59:43;;;;;;;12.82;8.82;;;;;;;19.21;70.28;101630.31;5010869;28;20022;-75
2022/07/31 01:02:11;;;;;;;14.88;8.60;;;;;;;19.16;70.76;101631.72;4993412;28;20459;-75
2022/07/31 01:04:36;;;;;;;11.60;8.40;;;;;;;19.14;70.74;101629.19;4992650;28;20046;-75
2022/07/31 01:07:02;;;;;;;13.57;8.57;;;;;;;19.10;70.93;101623.31;4990767;28;20441;-75
2022/07/31 01:09:28;;;;;;;13.93;8.15;;;;;;;19.10;70.70;101622.47;4990476;28;20026;-75
2022/07/31 01:12:06;;;;;;;10.52;7.68;;;;;;;19.15;70.41;101622.88;4996198;28;20045;-76
2022/07/31 01:14:46;;;;;;;8.98;7.88;;;;;;;19.04;70.83;101628.41;4991178;28;20121;-75
2022/07/31 01:17:12;;;;;;;12.68;8.20;;;;;;;18.99;71.07;101628.88;4990881;28;20030;-76
2022/07/31 01:19:41;;;;;;;10.45;8.30;;;;;;;18.95;71.36;101637.31;4991896;28;20029;-76
2022/07/31 01:22:13;;;;;;;12.77;7.95;;;;;;;18.98;71.76;101634.34;4991397;28;20097;-76
2022/07/31 01:24:58;;;;;;;11.65;7.57;;;;;;;18.97;71.54;101632.69;4991932;28;20022;-76
2022/07/31 01:27:30;;;;;;;10.77;7.25;;;;;;;18.89;71.81;101627.25;5006333;28;20050;-76
2022/07/31 01:30:00;;;;;;;10.38;7.22;;;;;;;18.88;72.07;101623.75;4994010;28;20026;-76
2022/07/31 01:32:34;;;;;;;10.98;7.97;;;;;;;18.80;72.18;101620.97;4995496;28;20029;-76
2022/07/31 01:35:24;;;;;;;11.13;7.38;;;;;;;18.85;71.49;101620.53;5008523;28;20025;-76
2022/07/31 01:37:55;;;;;;;11.65;7.88;;;;;;;18.80;71.89;101620.97;5008340;28;20549;-76
2022/07/31 01:40:35;;;;;;;12.13;7.20;;;;;;;18.81;71.61;101617.31;4997523;28;20022;-75
2022/07/31 01:43:06;;;;;;;9.52;7.45;;;;;;;18.73;71.92;101620.72;4989150;28;20026;-75
2022/07/31 01:45:33;;;;;;;10.80;7.85;;;;;;;18.71;71.62;101611.19;5000583;28;20018;-75
2022/07/31 01:48:00;;;;;;;11.50;7.57;;;;;;;18.67;71.76;101620.47;4994738;28;20546;-76
2022/07/31 01:50:26;;;;;;;11.70;8.18;;;;;;;18.67;71.25;101615.97;5008077;28;20034;-75
2022/07/31 01:52:53;;;;;;;15.77;7.85;;;;;;;18.60;71.42;101617.53;5008173;28;20021;-76
2022/07/31 01:55:19;;;;;;;11.73;7.90;;;;;;;18.54;71.34;101615.44;4999311;28;20105;-77
2022/07/31 01:57:46;;;;;;;18.10;8.23;;;;;;;18.55;71.46;101614.47;5002592;28;20109;-75
2022/07/31 02:00:12;;;;;;;13.43;8.38;;;;;;;18.48;71.65;101610.69;5001028;28;20496;-75
2022/07/31 02:02:39;;;;;;;14.23;8.27;;;;;;;18.50;71.48;101616.72;5009977;28;20076;-75
2022/07/31 02:05:09;;;;;;;13.63;8.27;;;;;;;18.47;71.31;101614.34;5009810;28;20533;-75
2022/07/31 02:07:36;;;;;;;12.48;8.25;;;;;;;18.39;71.83;101617.72;5009567;28;20041;-75
2022/07/31 02:10:04;;;;;;;12.48;7.75;;;;;;;18.45;71.72;101617.16;5009492;28;20553;-76
2022/07/31 02:12:31;;;;;;;10.80;8.27;;;;;;;18.38;71.98;101605.38;5008542;28;20030;-75
2022/07/31 02:14:57;;;;;;;13.70;8.38;;;;;;;18.40;72.02;101611.41;5009479;28;20384;-75
2022/07/31 02:17:24;;;;;;;11.27;7.85;;;;;;;18.44;72.31;101614.66;5007447;28;20065;-75
2022/07/31 02:19:51;;;;;;;12.80;8.55;;;;;;;18.39;72.52;101600.91;4999528;28;20029;-75
2022/07/31 02:22:18;;;;;;;15.10;8.43;;;;;;;18.37;72.83;101603.72;4995837;28;20030;-76
2022/07/31 02:24:44;;;;;;;12.15;8.57;;;;;;;18.40;72.62;101602.56;4990792;28;20026;-76
2022/07/31 02:27:11;;;;;;;10.32;8.73;;;;;;;18.35;73.22;101607.50;5008007;28;20042;-75
2022/07/31 02:29:38;;;;;;;13.75;8.75;;;;;;;18.31;73.36;101614.94;4994628;28;20018;-75
2022/07/31 02:32:04;;;;;;;11.13;8.43;;;;;;;18.25;73.51;101614.69;4988643;28;20026;-76
2022/07/31 02:34:31;;;;;;;12.10;8.75;;;;;;;18.22;74.10;101621.16;4994636;28;20034;-76
2022/07/31 02:36:59;;;;;;;12.55;8.63;;;;;;;18.24;74.06;101613.00;5005112;28;20092;-75
2022/07/31 02:39:26;;;;;;;11.85;9.23;;;;;;;18.10;74.81;101612.50;5001234;28;20479;-75
2022/07/31 02:41:51;;;;;;;14.27;9.10;;;;;;;18.20;74.95;101622.28;5002984;28;20026;-75
2022/07/31 02:44:18;;;;;;;12.65;9.23;;;;;;;18.16;74.82;101622.56;4995218;28;20030;-76
2022/07/31 02:46:44;;;;;;;13.40;9.00;;;;;;;18.17;75.26;101613.59;4991868;28;20115;-75
2022/07/31 02:49:12;;;;;;;11.82;9.00;;;;;;;18.15;75.01;101612.91;4989511;28;20057;-75
2022/07/31 02:51:39;;;;;;;12.02;9.27;;;;;;;18.10;75.64;101601.84;4997300;28;20530;-75
2022/07/31 02:54:04;;;;;;;11.38;9.13;;;;;;;18.14;75.28;101611.22;4996468;28;20421;-76
2022/07/31 02:56:31;;;;;;;13.45;8.93;;;;;;;18.12;75.29;101607.88;5003843;28;20032;-76
2022/07/31 02:58:56;;;;;;;11.52;9.07;;;;;;;17.99;75.65;101604.66;4993063;28;20050;-76
2022/07/31 03:01:21;;;;;;;11.60;8.98;;;;;;;18.04;75.60;101598.91;5002800;28;20084;-76
2022/07/31 03:03:47;;;;;;;14.57;9.63;;;;;;;18.04;75.81;101589.09;4998609;28;20025;-76
2022/07/31 03:06:13;;;;;;;13.00;9.30;;;;;;;18.04;76.04;101591.75;4996308;28;20054;-76
2022/07/31 03:08:38;;;;;;;16.33;8.80;;;;;;;18.05;75.82;101588.13;5003820;28;20112;-76
2022/07/31 03:11:04;;;;;;;15.52;9.00;;;;;;;18.03;75.38;101595.41;4991775;28;20109;-76
2022/07/31 03:13:31;;;;;;;12.50;8.70;;;;;;;18.00;75.64;101590.34;4998205;28;20029;-76
2022/07/31 03:15:58;;;;;;;13.43;9.27;;;;;;;17.91;75.58;101585.88;4999749;28;20027;-76
2022/07/31 03:18:25;;;;;;;12.63;9.95;;;;;;;17.80;76.20;101594.03;4998705;28;20033;-76
2022/07/31 03:20:51;;;;;;;13.48;9.80;;;;;;;17.76;76.00;101587.31;4988446;28;20026;-76
2022/07/31 03:23:20;;;;;;;16.20;10.73;;;;;;;17.75;76.07;101585.63;4990159;28;20031;-75
2022/07/31 03:25:49;;;;;;;14.07;10.18;;;;;;;17.73;76.04;101587.59;4990363;28;20026;-75
2022/07/31 03:28:14;;;;;;;13.43;10.63;;;;;;;17.70;76.30;101587.91;4997261;28;20535;-76
2022/07/31 03:30:39;;;;;;;11.63;10.43;;;;;;;17.70;76.04;101583.41;5008348;28;20113;-75
2022/07/31 03:33:05;;;;;;;12.65;10.93;;;;;;;17.71;76.14;101584.25;4999741;28;20022;-75
2022/07/31 03:35:30;;;;;;;12.48;10.73;;;;;;;17.69;76.33;101586.22;5009128;28;20108;-75
2022/07/31 03:37:56;;;;;;;13.60;11.18;;;;;;;17.61;76.54;101580.69;4998534;28;20059;-75
2022/07/31 03:40:22;;;;;;;12.68;10.90;;;;;;;17.66;76.20;101578.47;5011820;28;20443;-76
2022/07/31 03:42:49;;;;;;;12.70;10.88;;;;;;;17.68;76.25;101579.22;5001865;28;20034;-76
2022/07/31 03:45:15;;;;;;;17.38;11.35;;;;;;;17.63;76.13;101570.78;4995589;28;20018;-76
2022/07/31 03:47:40;;;;;;;18.08;10.63;;;;;;;17.66;76.16;101581.97;4992543;28;20034;-75
2022/07/31 03:50:07;;;;;;;21.92;12.95;;;;;;;17.64;76.30;101580.44;5008753;28;20377;-76
2022/07/31 03:52:33;;;;;;;14.65;11.60;;;;;;;17.61;76.20;101580.69;5008983;28;20105;-76
2022/07/31 03:54:59;;;;;;;14.52;11.18;;;;;;;17.67;76.02;101578.38;5001465;28;20026;-76
2022/07/31 03:57:26;;;;;;;18.58;12.93;;;;;;;17.60;76.50;101582.53;4997951;28;20053;-76
2022/07/31 03:59:55;;;;;;;15.00;12.50;;;;;;;17.64;76.81;101577.78;5005980;28;20037;-75
2022/07/31 04:02:20;;;;;;;17.10;12.23;;;;;;;17.65;76.48;101580.31;4993503;28;20095;-76
2022/07/31 04:04:46;;;;;;;15.07;12.18;;;;;;;17.63;76.61;101576.09;5005294;28;20464;-75
2022/07/31 04:07:11;;;;;;;17.63;13.07;;;;;;;17.60;76.73;101579.00;5001036;28;20033;-75
2022/07/31 04:09:37;;;;;;;16.83;13.25;;;;;;;17.55;76.94;101590.94;5006334;28;20413;-75
2022/07/31 04:12:03;;;;;;;16.05;12.85;;;;;;;17.53;77.10;101587.56;4994686;28;20030;-75
2022/07/31 04:14:28;;;;;;;17.60;12.20;;;;;;;17.52;77.31;101585.03;5000984;28;20333;-75
2022/07/31 04:16:54;;;;;;;14.70;12.10;;;;;;;17.53;77.37;101584.91;5000429;28;20022;-75
2022/07/31 04:19:19;;;;;;;13.50;12.10;;;;;;;17.50;77.60;101587.84;5003574;28;20392;-75
2022/07/31 04:21:44;;;;;;;14.35;12.57;;;;;;;17.52;77.68;101596.53;4996210;28;20026;-75
2022/07/31 04:24:12;;;;;;;16.52;11.45;;;;;;;17.54;77.75;101599.88;4991567;28;20142;-76
2022/07/31 04:26:37;;;;;;;16.88;11.63;;;;;;;17.51;77.96;101600.16;4998265;28;20058;-76
2022/07/31 04:29:03;;;;;;;14.82;10.85;;;;;;;17.48;78.11;101599.63;5000752;28;20022;-76
2022/07/31 04:31:29;;;;;;;16.70;11.30;;;;;;;17.49;78.32;101602.13;4997176;28;20037;-76
2022/07/31 04:33:54;;;;;;;16.50;11.02;;;;;;;17.47;78.60;101593.44;4991643;28;20031;-76
2022/07/31 04:36:19;;;;;;;15.73;11.27;;;;;;;17.50;78.45;101592.34;5006398;28;20022;-76
2022/07/31 04:38:45;;;;;;;12.88;10.43;;;;;;;17.48;78.84;101600.47;5011812;28;20022;-76
2022/07/31 04:41:10;;;;;;;13.35;10.70;;;;;;;17.52;78.88;101607.19;5012204;28;20430;-76
2022/07/31 04:43:35;;;;;;;14.38;10.38;;;;;;;17.55;78.98;101601.56;5012402;28;20025;-76
2022/07/31 04:46:01;;;;;;;12.68;10.07;;;;;;;17.55;79.27;101596.25;5011005;28;20041;-76
2022/07/31 04:48:26;;;;;;;12.57;10.30;;;;;;;17.54;79.30;101599.06;5010298;28;20026;-77
2022/07/31 04:50:51;;;;;;;13.02;9.68;;;;;;;17.59;79.26;101596.81;5012332;28;20029;-77
2022/07/31 04:53:20;;;;;;;16.05;9.30;;;;;;;17.55;80.04;101596.25;5008412;28;20041;-77
2022/07/31 04:56:32;;;;;;;12.07;9.50;;;;;;;17.58;80.26;101591.63;5004881;28;20057;-77
2022/07/31 04:58:31;;;;;;;11.55;9.40;;;;;;;17.60;80.57;101587.84;5002903;28;20025;-76
2022/07/31 05:00:56;;;;;;;10.55;8.95;;;;;;;17.67;80.38;101593.50;5009417;28;20037;-77
2022/07/31 05:03:22;;;;;;;11.38;8.30;;;;;;;17.66;80.86;101592.63;4994283;28;20022;-77
2022/07/31 05:05:48;;;;;;;10.90;8.40;;;;;;;17.67;80.71;101590.84;5004845;28;20365;-77
2022/07/31 05:08:14;;;;;;;10.75;8.48;;;;;;;17.68;80.92;101590.69;4998932;28;20215;-77
2022/07/31 05:13:23;;;;;;;9.90;8.02;;;;;;;17.72;81.11;101585.94;5007856;28;20045;-77
2022/07/31 05:15:48;;;;;;;9.93;8.00;;;;;;;17.72;81.23;101580.59;4996998;28;20400;-77
2022/07/31 05:18:13;;;;;;;11.35;7.57;;;;;;;17.77;81.12;101573.03;5000124;28;20023;-77
2022/07/31 05:20:38;;;;;;;11.63;7.40;;;;;;;17.78;81.52;101572.03;5003100;28;20112;-77
2022/07/31 05:23:04;;;;;;;9.65;6.95;;;;;;;17.82;81.17;101576.09;4994981;28;20100;-76
2022/07/31 05:25:29;;;;;;;7.05;6.35;;;;;;;17.82;81.70;101579.59;5006777;28;20499;-77
2022/07/31 05:27:54;;;;;;;9.25;6.70;;;;;;;17.82;81.84;101581.41;4992760;28;20050;-77
2022/07/31 05:30:20;;;;;;;7.53;6.70;;;;;;;17.84;82.12;101580.28;5008988;28;20102;-77
2022/07/31 05:32:45;;;;;;;7.45;5.90;;;;;;;17.86;82.27;101574.81;5002870;28;20033;-77
2022/07/31 05:35:10;;;;;;;9.15;5.95;;;;;;;17.90;82.06;101573.56;5006506;28;20157;-77
2022/07/31 05:37:36;;;;;;;10.02;6.38;;;;;;;17.90;82.58;101572.72;4989890;28;20053;-77
2022/07/31 05:40:01;;;;;;;10.43;6.22;;;;;;;17.92;83.11;101570.75;4990076;28;20045;-77
2022/07/31 05:42:26;;;;;;;6.07;5.47;;;;;;;17.92;83.28;101571.59;5000708;28;20368;-77
2022/07/31 05:44:52;;;;;;;8.80;5.43;;;;;;;17.91;83.35;101579.72;4995194;28;20026;-77
2022/07/31 05:47:20;;;;;;;9.75;5.97;;;;;;;17.94;83.79;101579.44;4995666;28;20576;-77
2022/07/31 05:49:45;;;;;;;9.52;5.68;;;;;;;17.95;83.65;101573.13;4995620;28;20397;-76
2022/07/31 05:52:11;;;;;;;7.80;5.60;;;;;;;17.97;83.70;101573.81;4998544;28;20038;-77
2022/07/31 05:54:36;;;;;;;10.70;5.55;;;;;;;17.97;84.09;101581.81;5002435;28;20041;-77
2022/07/31 05:57:01;;;;;;;8.23;5.22;;;;;;;17.96;84.28;101583.63;4998418;28;20028;-77
2022/07/31 05:59:27;;;;;;;7.35;5.20;;;;;;;17.98;84.33;101571.00;4993144;28;20017;-77
2022/07/31 06:01:52;;;;;;;8.75;5.60;;;;;;;18.02;84.37;101572.44;5003066;28;20084;-77
2022/07/31 06:04:18;;;;;;;8.55;5.20;;;;;;;18.03;84.59;101578.59;4991881;28;20407;-77
2022/07/31 06:06:43;;;;;;;8.40;5.18;;;;;;;18.05;84.38;101577.47;5003027;28;20076;-77
2022/07/31 06:09:09;;;;;;;6.40;5.30;;;;;;;18.04;84.61;101570.47;5000332;28;20361;-77
2022/07/31 06:11:34;;;;;;;6.05;4.72;;;;;;;18.13;84.28;101572.25;4997741;28;20473;-77
2022/07/31 06:14:00;;;;;;;6.00;4.82;;;;;;;18.22;83.99;101577.69;4998807;28;20378;-76
2022/07/31 06:16:25;;;;;;;7.45;5.10;;;;;;;18.18;84.35;101569.16;5004317;28;20539;-76
2022/07/31 06:18:51;;;;;;;7.65;4.82;;;;;;;18.15;84.86;101580.94;4995617;28;20022;-76
2022/07/31 06:21:16;;;;;;;6.22;5.28;;;;;;;18.22;84.60;101570.53;4997861;28;20030;-77
2022/07/31 06:23:41;;;;;;;5.75;4.95;;;;;;;18.22;84.80;101575.88;4999048;28;20402;-76
2022/07/31 06:26:07;;;;;;;8.13;4.82;;;;;;;18.24;85.00;101570.38;4997337;28;20407;-76
2022/07/31 06:28:32;;;;;;;5.90;4.88;;;;;;;18.27;84.76;101564.78;4996011;28;20117;-76
2022/07/31 06:30:58;;;;;;;6.72;5.05;;;;;;;18.26;84.70;101563.09;4995667;28;20034;-76
2022/07/31 06:33:23;;;;;;;7.30;5.40;;;;;;;18.33;84.82;101559.69;4996819;28;20451;-76
2022/07/31 06:35:49;;;;;;;7.55;5.07;;;;;;;18.41;84.47;101562.50;4998459;28;20030;-76
2022/07/31 06:38:14;;;;;;;10.25;5.85;;;;;;;18.42;84.25;101563.31;4995609;28;20060;-76
2022/07/31 06:40:40;;;;;;;7.70;5.43;;;;;;;18.43;84.58;101565.00;4999355;28;20140;-76
2022/07/31 06:43:05;;;;;;;9.48;5.85;;;;;;;18.42;84.56;101563.31;5001126;28;20022;-75
2022/07/31 06:45:30;;;;;;;8.13;5.78;;;;;;;18.45;84.60;101568.34;4997832;28;20018;-76
2022/07/31 06:47:56;;;;;;;7.47;5.72;;;;;;;18.45;84.48;101563.03;4997879;28;20021;-76
2022/07/31 06:50:21;;;;;;;9.32;5.43;;;;;;;18.48;84.72;101568.91;5001373;28;20462;-76
2022/07/31 06:52:46;;;;;;;11.05;6.10;;;;;;;18.51;84.60;101573.09;4995210;28;20443;-76
2022/07/31 06:55:12;;;;;;;9.90;5.63;;;;;;;18.58;84.33;101566.19;4998338;28;20068;-76
2022/07/31 06:57:37;;;;;;;6.72;5.30;;;;;;;18.69;84.19;101571.34;4998274;28;20029;-76
2022/07/31 07:00:04;;;;;;;7.00;6.05;;;;;;;18.67;84.25;101561.81;4995516;28;20030;-75
2022/07/31 07:02:29;;;;;;;10.48;6.30;;;;;;;18.70;84.12;101556.19;4999423;28;20030;-76
2022/07/31 07:04:55;;;;;;;10.52;6.38;;;;;;;18.75;84.08;101560.06;4993889;28;20497;-76
2022/07/31 07:07:20;;;;;;;7.35;5.65;;;;;;;18.82;83.34;101560.34;4993918;28;20050;-76
2022/07/31 07:09:45;;;;;;;9.40;6.85;;;;;;;18.82;83.60;101562.19;4998857;28;20030;-76
2022/07/31 07:12:10;;;;;;;9.80;7.25;;;;;;;18.85;83.90;101564.53;5005114;28;20544;-76
2022/07/31 07:14:36;;;;;;;8.95;7.70;;;;;;;18.84;84.26;101565.53;4994708;28;20035;-76
2022/07/31 07:17:03;;;;;;;10.05;7.13;;;;;;;18.90;84.00;101562.25;5000099;28;20120;-75
2022/07/31 07:19:29;;;;;;;12.38;7.75;;;;;;;19.11;83.75;101565.47;4999821;28;20502;-75
2022/07/31 07:21:54;;;;;;;12.68;8.07;;;;;;;19.17;82.91;101570.19;5003565;28;20021;-75
2022/07/31 07:24:20;;;;;;;13.52;8.77;;;;;;;19.30;82.73;101567.19;4993960;28;20033;-75
2022/07/31 07:26:45;;;;;;;11.70;8.93;;;;;;;19.38;82.02;101568.09;5000726;28;20043;-75
2022/07/31 07:29:10;;;;;;;14.88;10.63;;;;;;;19.46;81.94;101559.31;4998006;28;20396;-75
2022/07/31 07:31:36;;;;;;;10.80;9.23;;;;;;;19.53;81.28;101565.72;4999853;28;20386;-75
2022/07/31 07:34:04;;;;;;;13.10;10.75;;;;;;;19.66;81.10;101560.00;5001301;28;20399;-75
2022/07/31 07:36:30;;;;;;;12.55;9.82;;;;;;;19.73;81.27;101552.22;4997163;28;20026;-75
2022/07/31 07:38:56;;;;;;;11.98;10.30;;;;;;;19.81;80.44;101550.44;4998623;28;20055;-74
2022/07/31 07:41:25;;;;;;;11.48;10.30;;;;;;;19.85;79.73;101554.47;5003092;28;20034;-74
2022/07/31 07:43:50;;;;;;;12.18;10.93;;;;;;;19.78;80.48;101553.41;5006020;28;20033;-77
2022/07/31 07:46:15;;;;;;;14.05;10.35;;;;;;;19.79;80.29;101552.44;4998643;28;20365;-77
2022/07/31 07:48:41;;;;;;;12.63;10.48;;;;;;;19.89;80.27;101549.66;4995807;28;20039;-77
2022/07/31 07:51:06;;;;;;;11.65;10.13;;;;;;;19.86;80.35;101548.13;5002917;28;20116;-77
2022/07/31 07:53:31;;;;;;;14.13;10.30;;;;;;;19.90;80.46;101546.81;5003875;28;20057;-77
2022/07/31 07:55:57;;;;;;;16.42;11.13;;;;;;;19.89;79.98;101547.81;5006707;28;20088;-75
2022/07/31 07:58:23;;;;;;;13.07;10.90;;;;;;;19.93;79.98;101551.84;4999580;28;20037;-76
2022/07/31 08:00:48;;;;;;;11.40;10.30;;;;;;;19.92;80.15;101544.81;5003777;28;20085;-76
2022/07/31 08:03:15;;;;;;;13.35;11.15;;;;;;;19.91;80.12;101543.16;5007847;28;20092;-75
2022/07/31 08:05:41;;;;;;;14.82;10.52;;;;;;;19.98;80.24;101552.22;5010427;28;20030;-76
2022/07/31 08:08:06;;;;;;;13.10;10.43;;;;;;;20.00;80.09;101549.38;5001154;28;20395;-76
2022/07/31 08:10:31;;;;;;;11.85;10.65;;;;;;;20.11;79.77;101538.44;5000259;28;20029;-75
2022/07/31 08:12:57;;;;;;;12.07;10.77;;;;;;;20.26;80.12;101542.19;5005932;28;20614;-75
2022/07/31 08:15:23;;;;;;;12.95;10.25;;;;;;;20.34;79.55;101542.22;5003840;28;20479;-76
2022/07/31 08:17:48;;;;;;;16.27;11.15;;;;;;;20.52;78.24;101536.84;5010117;28;20423;-77
2022/07/31 08:20:14;;;;;;;13.70;11.00;;;;;;;20.57;78.30;101539.03;5001589;28;20033;-75
2022/07/31 08:22:39;;;;;;;12.13;10.80;;;;;;;20.67;78.31;101545.06;4994933;28;20495;-75
2022/07/31 08:25:05;;;;;;;14.82;10.98;;;;;;;20.76;76.81;101538.72;5010732;28;20032;-76
2022/07/31 08:27:30;;;;;;;12.32;10.50;;;;;;;20.67;76.68;101538.88;5003770;28;20073;-75
2022/07/31 08:30:00;;;;;;;12.07;10.68;;;;;;;20.62;77.63;101537.53;5009095;28;20030;-76
2022/07/31 08:32:26;;;;;;;15.82;11.13;;;;;;;20.59;77.55;101537.84;5002279;28;20112;-76
2022/07/31 08:34:52;;;;;;;11.70;9.75;;;;;;;20.61;77.71;101537.69;5002029;28;20037;-77
2022/07/31 08:37:18;;;;;;;11.40;9.70;;;;;;;20.55;77.65;101536.50;4991294;28;20373;-77
2022/07/31 08:39:45;;;;;;;15.85;10.57;;;;;;;20.58;77.70;101543.38;4999801;28;20033;-76
2022/07/31 08:42:10;;;;;;;11.15;9.48;;;;;;;20.63;78.55;101538.38;5005636;28;20055;-76
2022/07/31 08:44:37;;;;;;;12.30;9.95;;;;;;;20.62;78.41;101537.53;5008905;28;20025;-76
2022/07/31 08:47:07;;;;;;;12.40;9.93;;;;;;;20.69;78.41;101537.72;5008968;28;20029;-76
2022/07/31 08:49:36;;;;;;;12.98;9.60;;;;;;;20.72;77.95;101539.22;5006454;28;20033;-76
2022/07/31 08:52:02;;;;;;;11.05;9.13;;;;;;;20.68;78.04;101543.22;5008712;28;20434;-77
2022/07/31 08:54:31;;;;;;;11.85;9.10;;;;;;;20.77;78.50;101548.44;5007422;28;20045;-77
2022/07/31 08:56:57;;;;;;;11.32;9.18;;;;;;;20.82;77.98;101545.28;5004267;28;20027;-76
2022/07/31 08:59:22;;;;;;;11.93;8.68;;;;;;;20.89;77.80;101540.97;5004231;28;20025;-76
2022/07/31 09:01:48;;;;;;;9.18;8.27;;;;;;;20.93;78.05;101550.34;5007740;28;20034;-76
2022/07/31 09:04:13;;;;;;;9.70;8.68;;;;;;;20.97;77.96;101540.97;5001228;28;20022;-77
2022/07/31 09:06:41;;;;;;;10.10;8.35;;;;;;;21.08;77.82;101546.00;5000086;28;20033;-77
2022/07/31 09:09:06;;;;;;;11.75;9.40;;;;;;;21.10;76.58;101537.81;5006823;28;20022;-76
2022/07/31 09:11:32;;;;;;;11.23;8.98;;;;;;;21.12;77.06;101536.63;5004774;28;20075;-76
2022/07/31 09:14:03;;;;;;;10.88;8.77;;;;;;;21.17;76.43;101536.97;4996693;28;20025;-76
2022/07/31 09:16:29;;;;;;;10.88;8.48;;;;;;;21.20;76.21;101536.66;4999903;28;20026;-75
2022/07/31 09:18:55;;;;;;;13.25;8.82;;;;;;;21.16;76.26;101535.31;5005213;28;20049;-76
2022/07/31 09:21:21;;;;;;;10.30;8.75;;;;;;;21.19;75.60;101526.94;4999070;28;20088;-77
2022/07/31 09:23:47;;;;;;;9.02;8.13;;;;;;;21.24;76.31;101527.34;4999355;28;20109;-77
2022/07/31 09:26:12;;;;;;;12.15;8.75;;;;;;;21.41;75.39;101527.34;4999982;28;20047;-77
2022/07/31 09:28:40;;;;;;;10.38;7.93;;;;;;;21.46;75.69;101524.97;4995728;28;20026;-77
2022/07/31 09:31:11;;;;;;;11.98;7.32;;;;;;;21.53;75.40;101536.69;5004081;28;20034;-76
2022/07/31 09:33:38;;;;;;;8.88;6.88;;;;;;;21.63;75.50;101531.19;4995064;28;20034;-76
2022/07/31 09:36:04;;;;;;;8.27;7.47;;;;;;;21.84;74.26;101535.00;4995487;28;20040;-75
2022/07/31 09:38:36;;;;;;;9.25;7.00;;;;;;;22.01;73.42;101525.06;5000266;28;20046;-76
2022/07/31 09:41:16;;;;;;;9.03;7.60;;;;;;;22.14;73.43;101535.31;5015130;28;20029;-75
2022/07/31 09:43:42;;;;;;;10.02;6.95;;;;;;;22.33;72.14;101526.84;5002116;28;20096;-75
2022/07/31 09:46:08;;;;;;;10.48;6.95;;;;;;;22.68;71.16;101520.16;5001975;28;20026;-76
2022/07/31 09:48:36;;;;;;;10.30;7.00;;;;;;;22.79;70.36;101519.75;5001711;28;20038;-75
2022/07/31 09:51:06;;;;;;;8.48;6.43;;;;;;;22.85;69.81;101518.25;5008135;28;20556;-75
2022/07/31 09:53:39;;;;;;;7.05;6.10;;;;;;;22.96;70.01;101515.16;5001356;28;20396;-76
2022/07/31 09:56:06;;;;;;;;;;;;;;;23.16;70.47;101518.19;5003363;28;20061;-76
2022/07/31 09:58:32;;;;;;;7.45;5.55;;;;;;;23.21;68.54;101518.47;5005960;28;19921;-76
2022/07/31 10:00:59;;;;;;;8.38;5.75;;;;;;;23.42;69.15;101510.59;5003046;28;20279;-76
2022/07/31 10:03:25;;;;;;;6.90;5.18;;;;;;;23.59;68.62;101500.56;4995082;28;20034;-76
2022/07/31 10:05:51;;;;;;;7.75;4.68;;;;;;;23.67;68.25;101510.41;4995760;28;20561;-76
2022/07/31 10:08:21;;;;;;;9.38;4.80;;;;;;;23.68;67.69;101504.84;5000055;28;20030;-76
2022/07/31 10:10:48;;;;;;;5.88;4.35;;;;;;;23.68;67.09;101514.78;5003043;28;20045;-76
2022/07/31 10:13:18;;;;;;;7.50;4.50;;;;;;;23.74;66.13;101514.03;5001148;28;20064;-76
2022/07/31 10:15:45;;;;;;;6.80;4.47;;;;;;;23.63;66.19;101509.94;4994920;28;20026;-76
2022/07/31 10:18:11;;;;;;;5.43;4.28;;;;;;;23.41;66.89;101508.94;4990881;28;20091;-76
2022/07/31 10:20:40;;;;;;;6.72;4.95;;;;;;;23.29;66.82;101513.06;5005296;28;20484;-76
2022/07/31 10:23:18;;;;;;;6.38;4.80;;;;;;;23.29;67.89;101509.53;4988961;28;20065;-76
2022/07/31 10:25:50;;;;;;;6.60;4.18;;;;;;;23.24;67.72;101511.94;4990844;28;20058;-76
2022/07/31 10:28:16;;;;;;;8.02;4.40;;;;;;;23.19;67.29;101509.75;4998335;28;20504;-76
2022/07/31 10:30:44;;;;;;;7.05;4.30;;;;;;;23.22;67.59;101508.59;4997043;28;20038;-76
2022/07/31 10:33:09;;;;;;;7.65;3.80;;;;;;;23.28;67.35;101497.97;4995675;28;20113;-76
2022/07/31 10:35:43;;;;;;;5.95;3.67;;;;;;;23.37;66.73;101504.94;4989724;28;20109;-76
2022/07/31 10:38:19;;;;;;;6.00;3.70;;;;;;;23.51;66.26;101500.59;5005318;28;20040;-75
2022/07/31 10:40:51;;;;;;;6.38;3.60;;;;;;;23.68;65.41;101506.72;4990989;28;20034;-75
2022/07/31 10:43:44;;;;;;;6.03;3.95;;;;;;;23.62;65.32;101497.53;4997628;28;20067;-75
2022/07/31 10:46:10;;;;;;;8.45;3.72;;;;;;;23.65;66.35;101491.78;5005275;28;20032;-76
2022/07/31 10:48:35;;;;;;;5.47;3.55;;;;;;;23.75;65.90;101495.03;4999507;28;20030;-76
2022/07/31 10:51:08;;;;;;;3.83;3.20;;;;;;;23.69;66.02;101490.41;5006239;28;20113;-76
2022/07/31 10:53:34;;;;;;;6.57;3.30;;;;;;;23.57;65.55;101489.16;4995797;28;20108;-76
2022/07/31 10:56:04;;;;;;;4.13;3.13;;;;;;;23.51;66.15;101487.16;5000891;28;20030;-76
2022/07/31 10:58:30;;;;;;;4.95;3.22;;;;;;;23.57;66.31;101491.00;5004822;28;20499;-75
2022/07/31 11:01:11;;;;;;;3.63;3.10;;;;;;;23.61;65.96;101477.03;4993588;28;20034;-75
2022/07/31 11:03:38;;;;;;;7.30;3.30;;;;;;;23.71;65.09;101483.00;4995429;28;20029;-75
2022/07/31 11:06:03;;;;;;;5.07;3.58;;;;;;;23.73;64.73;101475.56;4998270;28;20037;-76
2022/07/31 11:08:40;;;;;;;5.25;3.50;;;;;;;23.88;65.26;101477.44;4995223;28;20030;-75
2022/07/31 11:11:06;;;;;;;4.53;3.22;;;;;;;23.94;65.43;101476.69;4998571;28;20057;-75
2022/07/31 11:13:32;;;;;;;5.68;3.65;;;;;;;23.94;65.56;101468.63;5007050;28;20057;-75
2022/07/31 11:16:04;;;;;;;5.25;3.30;;;;;;;24.08;65.83;101478.56;5007543;28;20396;-75
2022/07/31 11:18:30;;;;;;;5.40;3.20;;;;;;;24.44;64.75;101478.63;4993546;28;20387;-76
2022/07/31 11:21:01;;;;;;;5.35;3.40;;;;;;;24.45;64.52;101474.06;5001832;28;20026;-75